Time;durP1;ratioP1;P1;durP2;ratioP2;P2;SDS_P1;SDS_P2;PMS_P1;PMS_P2;Temp;Humidity;BMP_temperature;BMP_pressure;BME280_temperature;BME280_humidity;BME280_pressure;Samples;Min_cycle;Max_cycle;Signal;HPM_P1;HPM_P2
2022/03/05 00:00:14;;;;;;;60.50;31.88;;;;;;;;;;5021296;28;20028;-65
2022/03/05 00:02:40;;;;;;;63.22;31.75;;;;;;;;;;5022928;28;20025;-65
2022/03/05 06:56:53;;;;;;;51.88;25.55;;;;;;;;;;5068344;28;20371;-65
2022/03/05 06:59:19;;;;;;;54.28;26.13;;;;;;;;;;5068142;28;20079;-66
2022/03/05 07:01:45;;;;;;;58.42;28.92;;;;;;;;;;5068015;28;20029;-64
2022/03/05 07:04:11;;;;;;;62.33;29.58;;;;;;;;;;5068114;28;20025;-65
2022/03/05 07:06:37;;;;;;;55.50;27.48;;;;;;;;;;5068115;28;20099;-64
2022/03/05 07:09:04;;;;;;;57.38;27.23;;;;;;;;;;5067873;28;20431;-66
2022/03/05 07:11:30;;;;;;;56.03;28.73;;;;;;;;;;5067910;28;20548;-64
2022/03/05 07:13:56;;;;;;;50.08;27.23;;;;;;;;;;5067824;28;20028;-66
2022/03/05 07:16:22;;;;;;;63.20;33.10;;;;;;;;;;5067867;28;20033;-64
2022/03/05 07:18:48;;;;;;;54.00;27.25;;;;;;;;;;5068003;28;20075;-64
2022/03/05 07:21:14;;;;;;;47.40;24.80;;;;;;;;;;5067838;28;20020;-65
2022/03/05 07:23:40;;;;;;;51.20;25.70;;;;;;;;;;5067819;28;20047;-64
2022/03/05 07:26:06;;;;;;;47.58;23.30;;;;;;;;;;5067629;28;20477;-67
2022/03/05 07:28:32;;;;;;;48.30;24.80;;;;;;;;;;5066838;28;20041;-66
2022/03/05 07:30:58;;;;;;;53.03;25.77;;;;;;;;;;5067483;28;20058;-64
2022/03/05 07:33:26;;;;;;;51.40;25.88;;;;;;;;;;5066345;28;20396;-67
2022/03/05 07:35:52;;;;;;;50.92;26.65;;;;;;;;;;5067666;28;20027;-65
2022/03/05 07:38:18;;;;;;;44.80;22.27;;;;;;;;;;5067350;28;20033;-67
2022/03/05 07:40:45;;;;;;;45.15;24.50;;;;;;;;;;5067319;28;20029;-67
2022/03/05 07:43:12;;;;;;;48.47;24.98;;;;;;;;;;5067197;28;20082;-64
2022/03/05 07:45:38;;;;;;;54.40;26.92;;;;;;;;;;5067103;28;20051;-67
2022/03/05 07:48:04;;;;;;;66.68;30.25;;;;;;;;;;5066841;28;20025;-68
2022/03/05 07:50:31;;;;;;;97.88;46.45;;;;;;;;;;5066694;28;20047;-67
2022/03/05 07:52:57;;;;;;;60.78;27.70;;;;;;;;;;5066885;28;20024;-64
2022/03/05 07:55:23;;;;;;;87.70;38.30;;;;;;;;;;5056749;28;20053;-64
2022/03/05 07:57:49;;;;;;;52.47;26.67;;;;;;;;;;5033573;28;20025;-66
2022/03/05 08:00:16;;;;;;;50.85;25.85;;;;;;;;;;5033292;28;20112;-64
2022/03/05 08:02:42;;;;;;;59.20;25.58;;;;;;;;;;5032723;28;20030;-64
2022/03/05 08:05:08;;;;;;;100.05;45.55;;;;;;;;;;5033173;28;20473;-64
2022/03/05 08:07:34;;;;;;;88.07;38.08;;;;;;;;;;5033313;28;20060;-64
2022/03/05 08:10:00;;;;;;;89.72;38.35;;;;;;;;;;5033624;28;20083;-63
2022/03/05 08:12:26;;;;;;;52.25;24.92;;;;;;;;;;5033482;28;20121;-64
2022/03/05 08:14:53;;;;;;;45.63;23.02;;;;;;;;;;5033469;28;20025;-63
2022/03/05 08:17:19;;;;;;;50.67;25.15;;;;;;;;;;5033227;28;20032;-64
2022/03/05 08:19:45;;;;;;;69.68;29.42;;;;;;;;;;5033521;28;20060;-63
2022/03/05 08:22:11;;;;;;;50.90;25.52;;;;;;;;;;5032850;28;20026;-69
2022/03/05 08:24:37;;;;;;;57.58;26.77;;;;;;;;;;5032103;28;20041;-64
2022/03/05 08:27:03;;;;;;;61.72;28.95;;;;;;;;;;5032865;28;20030;-64
2022/03/05 08:29:29;;;;;;;65.55;30.20;;;;;;;;;;5033276;28;20147;-64
2022/03/05 08:31:55;;;;;;;98.88;40.83;;;;;;;;;;5032906;28;20048;-64
2022/03/05 08:34:21;;;;;;;40.50;20.55;;;;;;;;;;5033143;28;20056;-65
2022/03/05 08:36:48;;;;;;;42.72;21.20;;;;;;;;;;5032725;28;20101;-66
2022/03/05 08:39:14;;;;;;;44.53;22.92;;;;;;;;;;5033020;28;20017;-66
2022/03/05 08:41:40;;;;;;;54.55;25.40;;;;;;;;;;5032999;28;20029;-67
2022/03/05 08:44:06;;;;;;;54.03;25.25;;;;;;;;;;5032862;28;20367;-65
2022/03/05 08:46:32;;;;;;;58.70;28.50;;;;;;;;;;5033279;28;20103;-65
2022/03/05 08:48:58;;;;;;;48.38;24.80;;;;;;;;;;5032967;28;20022;-64
2022/03/05 08:51:24;;;;;;;49.38;23.50;;;;;;;;;;5032072;28;20382;-65
2022/03/05 08:53:50;;;;;;;50.17;23.55;;;;;;;;;;5031357;28;20021;-63
2022/03/05 08:56:16;;;;;;;53.15;25.33;;;;;;;;;;5031193;28;20058;-63
2022/03/05 08:58:42;;;;;;;76.28;37.10;;;;;;;;;;5029926;28;20034;-62
2022/03/05 09:01:08;;;;;;;87.22;43.13;;;;;;;;;;5029334;28;20126;-62
2022/03/05 09:03:35;;;;;;;43.85;22.30;;;;;;;;;;5028345;28;20021;-63
2022/03/05 09:06:01;;;;;;;47.95;23.23;;;;;;;;;;5029383;28;20029;-62
2022/03/05 09:08:27;;;;;;;41.85;21.23;;;;;;;;;;5029594;28;20026;-62
2022/03/05 09:10:53;;;;;;;48.28;24.02;;;;;;;;;;5030292;28;20025;-63
2022/03/05 09:13:19;;;;;;;42.55;21.63;;;;;;;;;;5029276;28;20025;-62
2022/03/05 09:15:45;;;;;;;40.30;20.85;;;;;;;;;;5031503;28;20021;-65
2022/03/05 09:18:12;;;;;;;40.88;20.58;;;;;;;;;;5031567;28;20026;-63
2022/03/05 09:20:38;;;;;;;51.25;26.02;;;;;;;;;;5030908;28;20056;-63
2022/03/05 09:23:04;;;;;;;45.85;21.48;;;;;;;;;;5030498;28;20022;-64
2022/03/05 09:25:31;;;;;;;59.03;28.05;;;;;;;;;;5031263;28;20033;-63
2022/03/05 09:27:57;;;;;;;50.20;24.27;;;;;;;;;;5031357;28;20072;-64
2022/03/05 09:30:23;;;;;;;36.72;18.30;;;;;;;;;;5030901;28;20096;-62
2022/03/05 09:32:49;;;;;;;39.28;20.65;;;;;;;;;;5026167;28;20033;-63
2022/03/05 09:35:15;;;;;;;35.83;19.42;;;;;;;;;;5019353;28;20041;-63
2022/03/05 09:37:41;;;;;;;41.03;20.52;;;;;;;;;;5020243;28;20083;-63
2022/03/05 09:40:09;;;;;;;65.93;28.35;;;;;;;;;;5012696;28;20037;-64
2022/03/05 09:42:35;;;;;;;40.67;21.13;;;;;;;;;;5012018;28;20053;-63
2022/03/05 09:45:03;;;;;;;43.08;21.48;;;;;;;;;;5011932;28;20088;-63
2022/03/05 09:47:29;;;;;;;57.80;28.05;;;;;;;;;;5011913;28;20149;-63
2022/03/05 09:49:55;;;;;;;45.35;22.05;;;;;;;;;;5010534;28;20485;-63
2022/03/05 09:52:21;;;;;;;45.50;21.83;;;;;;;;;;5011811;28;20061;-63
2022/03/05 09:54:47;;;;;;;43.78;21.58;;;;;;;;;;5011302;28;20060;-63
2022/03/05 09:57:14;;;;;;;45.08;22.55;;;;;;;;;;5011535;28;20026;-64
2022/03/05 09:59:40;;;;;;;38.95;20.40;;;;;;;;;;5011515;28;20473;-64
2022/03/05 10:02:07;;;;;;;38.75;19.80;;;;;;;;;;5009980;28;20025;-63
2022/03/05 10:04:34;;;;;;;45.28;21.45;;;;;;;;;;5010559;28;20053;-63
2022/03/05 10:07:06;;;;;;;38.13;18.92;;;;;;;;;;5011587;28;20041;-63
2022/03/05 10:09:32;;;;;;;40.10;20.27;;;;;;;;;;5011230;28;20478;-64
2022/03/05 10:11:58;;;;;;;47.45;22.85;;;;;;;;;;5011124;28;20073;-64
2022/03/05 10:14:24;;;;;;;42.33;21.38;;;;;;;;;;5011200;28;20386;-63
2022/03/05 10:16:50;;;;;;;35.78;17.25;;;;;;;;;;5011276;28;20113;-63
2022/03/05 10:19:20;;;;;;;38.88;20.75;;;;;;;;;;5010910;28;20029;-63
2022/03/05 10:21:58;;;;;;;41.00;20.13;;;;;;;;;;5011337;28;20045;-63
2022/03/05 10:24:35;;;;;;;39.10;20.67;;;;;;;;;;5009926;28;20041;-63
2022/03/05 10:27:01;;;;;;;47.65;21.85;;;;;;;;;;5011048;28;20029;-63
2022/03/05 10:29:34;;;;;;;52.55;23.27;;;;;;;;;;5011089;28;20104;-64
2022/03/05 10:32:02;;;;;;;46.97;22.35;;;;;;;;;;5011049;28;20022;-64
2022/03/05 10:34:29;;;;;;;37.13;19.38;;;;;;;;;;5010960;28;20033;-63
2022/03/05 10:37:00;;;;;;;42.00;22.10;;;;;;;;;;5011022;28;20010;-63
2022/03/05 10:39:26;;;;;;;40.85;21.58;;;;;;;;;;5011272;28;20033;-63
2022/03/05 10:41:54;;;;;;;34.28;19.05;;;;;;;;;;5010415;28;20496;-63
2022/03/05 10:44:20;;;;;;;77.50;33.25;;;;;;;;;;5011095;28;20112;-63
2022/03/05 10:46:57;;;;;;;45.15;22.55;;;;;;;;;;5010667;28;20030;-63
2022/03/05 10:49:24;;;;;;;44.22;21.27;;;;;;;;;;5010943;28;20089;-64
2022/03/05 10:51:52;;;;;;;44.92;23.83;;;;;;;;;;5011028;28;20038;-63
2022/03/05 10:54:30;;;;;;;49.78;24.05;;;;;;;;;;5011078;28;20084;-63
2022/03/05 10:56:56;;;;;;;47.08;22.98;;;;;;;;;;5010863;28;20073;-65
2022/03/05 10:59:22;;;;;;;47.00;23.92;;;;;;;;;;5011047;28;20030;-63
2022/03/05 11:01:49;;;;;;;43.08;22.20;;;;;;;;;;5010935;28;20014;-64
2022/03/05 11:04:15;;;;;;;45.60;22.60;;;;;;;;;;5010406;28;20060;-64
2022/03/05 11:06:45;;;;;;;40.45;21.20;;;;;;;;;;5010424;28;20038;-64
2022/03/05 11:09:11;;;;;;;40.88;19.63;;;;;;;;;;5010735;28;20028;-64
2022/03/05 11:11:39;;;;;;;36.47;19.65;;;;;;;;;;5010094;28;20402;-65
2022/03/05 11:14:13;;;;;;;37.55;19.70;;;;;;;;;;5010205;28;20102;-64
2022/03/05 11:16:39;;;;;;;42.45;20.08;;;;;;;;;;5010027;28;20037;-64
2022/03/05 11:19:06;;;;;;;37.97;20.20;;;;;;;;;;5010367;28;20046;-64
2022/03/05 11:21:32;;;;;;;42.97;20.77;;;;;;;;;;5009620;28;20033;-64
2022/03/05 11:23:58;;;;;;;39.58;21.10;;;;;;;;;;5009150;28;20080;-64
2022/03/05 11:26:25;;;;;;;36.00;20.35;;;;;;;;;;5009751;28;20046;-64
2022/03/05 11:28:51;;;;;;;49.38;24.63;;;;;;;;;;5009841;28;20029;-65
2022/03/05 11:31:31;;;;;;;38.22;19.88;;;;;;;;;;5010224;28;20105;-65
2022/03/05 11:34:10;;;;;;;44.90;23.10;;;;;;;;;;5013515;28;20133;-64
2022/03/05 11:36:38;;;;;;;38.08;21.58;;;;;;;;;;5013242;28;20034;-64
2022/03/05 11:39:14;;;;;;;38.67;21.10;;;;;;;;;;5012972;28;20105;-64
2022/03/05 11:41:51;;;;;;;35.22;20.02;;;;;;;;;;5013033;28;20060;-64
2022/03/05 11:44:17;;;;;;;35.00;19.63;;;;;;;;;;5013502;28;20475;-64
2022/03/05 11:46:44;;;;;;;39.80;19.90;;;;;;;;;;5011648;28;20033;-64
2022/03/05 11:49:13;;;;;;;39.03;21.02;;;;;;;;;;5012900;28;20018;-64
2022/03/05 11:51:58;;;;;;;43.35;22.00;;;;;;;;;;5013542;28;20393;-64
2022/03/05 11:54:27;;;;;;;37.85;19.88;;;;;;;;;;5013221;28;20026;-64
2022/03/05 11:57:13;;;;;;;34.90;19.10;;;;;;;;;;5013103;28;20054;-65
2022/03/05 11:59:40;;;;;;;36.10;17.98;;;;;;;;;;5013395;28;20029;-64
2022/03/05 12:02:06;;;;;;;32.13;16.48;;;;;;;;;;5013112;28;20076;-64
2022/03/05 12:04:32;;;;;;;41.20;19.88;;;;;;;;;;5013270;28;20038;-64
2022/03/05 12:07:05;;;;;;;40.58;20.92;;;;;;;;;;5013026;28;20044;-64
2022/03/05 12:09:37;;;;;;;36.75;19.58;;;;;;;;;;5013221;28;20022;-64
2022/03/05 12:12:07;;;;;;;35.65;19.35;;;;;;;;;;5013055;28;20061;-64
2022/03/05 12:14:52;;;;;;;36.97;19.70;;;;;;;;;;5013363;28;20077;-64
2022/03/05 12:17:21;;;;;;;39.70;21.02;;;;;;;;;;5013021;28;20034;-64
2022/03/05 12:19:47;;;;;;;37.83;21.17;;;;;;;;;;5012928;28;20060;-65
2022/03/05 12:22:14;;;;;;;43.65;21.95;;;;;;;;;;5012817;28;20036;-64
2022/03/05 12:24:40;;;;;;;37.75;20.08;;;;;;;;;;5012815;28;20030;-64
2022/03/05 12:27:09;;;;;;;37.67;20.77;;;;;;;;;;5012835;28;20397;-65
2022/03/05 12:29:35;;;;;;;37.28;20.35;;;;;;;;;;5012750;28;20018;-64
2022/03/05 12:32:01;;;;;;;39.13;21.25;;;;;;;;;;5012600;28;20036;-64
2022/03/05 12:34:28;;;;;;;40.10;21.40;;;;;;;;;;5012561;28;20026;-65
2022/03/05 12:36:54;;;;;;;38.08;20.85;;;;;;;;;;5012617;28;20450;-65
2022/03/05 12:39:24;;;;;;;41.60;21.15;;;;;;;;;;5012501;28;20382;-65
2022/03/05 12:41:50;;;;;;;39.15;20.92;;;;;;;;;;5012552;28;20490;-64
2022/03/05 12:44:16;;;;;;;39.63;20.55;;;;;;;;;;5012373;28;20057;-64
2022/03/05 12:46:42;;;;;;;40.28;21.50;;;;;;;;;;5012367;28;20044;-64
2022/03/05 12:49:09;;;;;;;46.35;22.75;;;;;;;;;;5012136;28;20026;-64
2022/03/05 12:51:35;;;;;;;41.20;20.83;;;;;;;;;;5012005;28;20073;-65
2022/03/05 12:54:02;;;;;;;42.10;21.70;;;;;;;;;;5012023;28;20406;-64
2022/03/05 12:56:28;;;;;;;42.50;22.00;;;;;;;;;;5012630;28;20050;-64
2022/03/05 12:58:58;;;;;;;43.60;22.58;;;;;;;;;;5012023;28;20041;-64
2022/03/05 13:01:26;;;;;;;41.53;21.70;;;;;;;;;;5011933;28;20651;-63
2022/03/05 13:03:54;;;;;;;28.77;12.38;;;;;;;;;;5012040;28;20026;-64
2022/03/05 13:06:20;;;;;;;41.65;22.88;;;;;;;;;;5011707;28;20081;-64
2022/03/05 13:08:46;;;;;;;46.53;23.15;;;;;;;;;;5011564;28;20513;-64
2022/03/05 13:11:12;;;;;;;39.55;18.98;;;;;;;;;;5028100;28;20497;-63
2022/03/05 13:13:40;;;;;;;36.90;20.23;;;;;;;;;;5030847;28;20105;-63
2022/03/05 13:16:07;;;;;;;36.83;21.30;;;;;;;;;;5031439;28;20033;-63
2022/03/05 13:18:34;;;;;;;44.53;20.55;;;;;;;;;;5031816;28;20031;-63
2022/03/05 13:21:04;;;;;;;38.58;20.38;;;;;;;;;;5030021;28;20037;-64
2022/03/05 13:23:31;;;;;;;45.53;22.23;;;;;;;;;;5030574;28;20356;-63
2022/03/05 13:25:57;;;;;;;38.90;20.42;;;;;;;;;;5031245;28;20112;-63
2022/03/05 13:28:26;;;;;;;39.78;21.30;;;;;;;;;;5031399;28;20538;-61
2022/03/05 13:30:54;;;;;;;37.88;20.10;;;;;;;;;;5029821;28;20048;-63
2022/03/05 13:33:38;;;;;;;36.22;19.48;;;;;;;;;;5031043;28;20029;-63
2022/03/05 13:36:11;;;;;;;34.22;18.25;;;;;;;;;;5030997;28;20444;-63
2022/03/05 13:38:38;;;;;;;26.35;13.93;;;;;;;;;;5030547;28;20072;-64
2022/03/05 13:41:04;;;;;;;33.97;18.75;;;;;;;;;;5030893;28;20541;-63
2022/03/05 13:43:30;;;;;;;33.30;17.73;;;;;;;;;;5030329;28;20064;-64
2022/03/05 13:45:58;;;;;;;29.63;17.52;;;;;;;;;;5030256;28;20061;-62
2022/03/05 13:48:26;;;;;;;34.70;18.42;;;;;;;;;;5030384;28;20048;-63
2022/03/05 13:50:52;;;;;;;32.97;17.40;;;;;;;;;;5030840;28;20561;-63
2022/03/05 13:53:18;;;;;;;34.67;19.05;;;;;;;;;;5028812;28;20112;-64
2022/03/05 13:55:44;;;;;;;35.97;19.33;;;;;;;;;;5028232;28;20055;-64
2022/03/05 13:58:21;;;;;;;32.80;17.23;;;;;;;;;;5029389;28;20527;-63
2022/03/05 14:00:47;;;;;;;29.77;16.75;;;;;;;;;;5029373;28;20021;-63
2022/03/05 14:03:16;;;;;;;35.58;18.90;;;;;;;;;;5029568;28;20021;-64
2022/03/05 14:05:42;;;;;;;35.00;17.75;;;;;;;;;;5028967;28;20032;-63
2022/03/05 14:08:08;;;;;;;32.33;18.40;;;;;;;;;;5029145;28;20074;-63
2022/03/05 14:10:34;;;;;;;32.60;16.17;;;;;;;;;;5029174;28;21477;-64
2022/03/05 14:13:00;;;;;;;69.78;30.50;;;;;;;;;;5027164;28;20029;-65
2022/03/05 14:15:28;;;;;;;58.10;24.77;;;;;;;;;;5029177;28;20030;-64
2022/03/05 14:18:01;;;;;;;52.63;24.63;;;;;;;;;;5029540;28;20044;-63
2022/03/05 14:20:28;;;;;;;52.25;23.63;;;;;;;;;;5020720;28;20034;-64
2022/03/05 14:22:54;;;;;;;40.70;21.13;;;;;;;;;;5016705;28;20017;-64
2022/03/05 14:25:31;;;;;;;34.65;18.33;;;;;;;;;;5026472;28;20120;-63
2022/03/05 14:28:04;;;;;;;32.67;17.85;;;;;;;;;;5029212;28;20029;-64
2022/03/05 14:30:32;;;;;;;33.00;17.60;;;;;;;;;;5029167;28;20017;-63
2022/03/05 14:32:59;;;;;;;31.70;16.88;;;;;;;;;;5029023;28;20021;-63
2022/03/05 14:35:26;;;;;;;37.00;19.25;;;;;;;;;;5029143;28;20067;-63
2022/03/05 14:37:53;;;;;;;68.28;29.95;;;;;;;;;;5029127;28;20024;-63
2022/03/05 14:40:20;;;;;;;31.02;17.35;;;;;;;;;;5027544;28;20473;-63
2022/03/05 14:42:47;;;;;;;32.10;16.98;;;;;;;;;;5028999;28;20025;-63
2022/03/05 14:45:14;;;;;;;57.72;25.35;;;;;;;;;;5028954;28;20083;-64
2022/03/05 14:47:41;;;;;;;41.65;22.08;;;;;;;;;;5028830;28;20029;-63
2022/03/05 14:50:11;;;;;;;31.20;17.00;;;;;;;;;;5029154;28;20025;-63
2022/03/05 14:52:37;;;;;;;33.08;17.42;;;;;;;;;;5028327;28;20021;-64
2022/03/05 14:55:04;;;;;;;37.05;20.13;;;;;;;;;;5027223;28;20046;-64
2022/03/05 14:57:30;;;;;;;35.88;18.65;;;;;;;;;;5027668;28;20022;-63
2022/03/05 14:59:56;;;;;;;40.72;18.63;;;;;;;;;;5028837;28;20464;-64
2022/03/05 15:02:22;;;;;;;29.55;16.48;;;;;;;;;;5028760;28;20013;-62
2022/03/05 15:04:49;;;;;;;37.28;18.70;;;;;;;;;;5028934;28;20072;-63
2022/03/05 15:07:16;;;;;;;32.60;14.38;;;;;;;;;;5031221;28;20029;-63
2022/03/05 15:09:42;;;;;;;33.15;17.77;;;;;;;;;;5031856;28;20033;-63
2022/03/05 15:12:08;;;;;;;32.58;18.27;;;;;;;;;;5028460;28;20022;-61
2022/03/05 15:14:34;;;;;;;29.77;14.82;;;;;;;;;;5028566;28;20061;-64
2022/03/05 15:17:01;;;;;;;38.03;18.90;;;;;;;;;;5031128;28;20025;-65
2022/03/05 15:19:27;;;;;;;26.45;13.63;;;;;;;;;;5031990;28;20025;-61
2022/03/05 15:21:53;;;;;;;34.60;16.90;;;;;;;;;;5031116;28;20025;-62
2022/03/05 15:24:19;;;;;;;37.22;19.65;;;;;;;;;;5031676;28;20104;-63
2022/03/05 15:26:45;;;;;;;39.20;20.45;;;;;;;;;;5031414;28;20037;-63
2022/03/05 15:29:11;;;;;;;33.28;18.13;;;;;;;;;;5032122;28;20029;-63
2022/03/05 15:31:37;;;;;;;33.30;18.98;;;;;;;;;;5032932;28;20025;-63
2022/03/05 15:34:04;;;;;;;30.58;16.33;;;;;;;;;;5032456;28;20096;-63
2022/03/05 15:36:30;;;;;;;33.70;17.65;;;;;;;;;;5032042;28;20049;-62
2022/03/05 15:38:56;;;;;;;31.60;17.27;;;;;;;;;;5032652;28;20025;-63
2022/03/05 15:41:22;;;;;;;33.53;17.52;;;;;;;;;;5033164;28;20516;-60
2022/03/05 15:43:48;;;;;;;31.15;17.52;;;;;;;;;;5032179;28;20026;-63
2022/03/05 15:46:15;;;;;;;30.60;17.00;;;;;;;;;;5033103;28;20044;-60
2022/03/05 15:48:44;;;;;;;39.47;18.85;;;;;;;;;;5033049;28;20029;-62
2022/03/05 15:51:11;;;;;;;49.42;21.92;;;;;;;;;;5032325;28;20025;-62
2022/03/05 15:53:37;;;;;;;37.42;18.15;;;;;;;;;;5032233;28;20025;-61
2022/03/05 15:56:05;;;;;;;29.80;17.15;;;;;;;;;;5032190;28;20666;-62
2022/03/05 15:58:31;;;;;;;35.13;18.73;;;;;;;;;;5032034;28;20037;-63
2022/03/05 16:01:00;;;;;;;37.85;20.70;;;;;;;;;;5032153;28;20076;-62
2022/03/05 16:03:26;;;;;;;43.58;21.90;;;;;;;;;;5032496;28;20374;-61
2022/03/05 16:05:54;;;;;;;33.75;18.60;;;;;;;;;;5031723;28;20083;-63
2022/03/05 16:08:20;;;;;;;37.38;19.33;;;;;;;;;;5032363;28;20104;-61
2022/03/05 16:10:46;;;;;;;32.92;18.02;;;;;;;;;;5032139;28;20030;-64
2022/03/05 16:13:12;;;;;;;33.65;17.55;;;;;;;;;;5028925;28;20395;-65
2022/03/05 16:15:39;;;;;;;37.28;19.65;;;;;;;;;;5032087;28;20017;-64
2022/03/05 16:18:05;;;;;;;40.10;20.73;;;;;;;;;;5031742;28;20033;-63
2022/03/05 16:20:32;;;;;;;39.50;18.80;;;;;;;;;;5031543;28;20056;-60
2022/03/05 16:22:58;;;;;;;41.50;21.10;;;;;;;;;;5032203;28;20100;-61
2022/03/05 16:25:24;;;;;;;30.55;17.83;;;;;;;;;;5032167;28;20113;-63
2022/03/05 16:27:51;;;;;;;31.55;18.40;;;;;;;;;;5031748;28;20071;-63
2022/03/05 16:30:17;;;;;;;39.05;20.85;;;;;;;;;;5031894;28;20025;-61
2022/03/05 16:32:44;;;;;;;37.65;21.02;;;;;;;;;;5031898;28;20439;-63
2022/03/05 16:35:10;;;;;;;48.88;24.15;;;;;;;;;;5031647;28;20121;-63
2022/03/05 16:37:37;;;;;;;46.92;24.13;;;;;;;;;;5032302;28;20029;-64
2022/03/05 16:40:04;;;;;;;43.95;21.50;;;;;;;;;;5031597;28;20163;-60
2022/03/05 16:42:30;;;;;;;49.67;24.42;;;;;;;;;;5031645;28;20032;-63
2022/03/05 16:44:56;;;;;;;43.15;23.38;;;;;;;;;;5031782;28;20052;-63
2022/03/05 16:47:22;;;;;;;79.25;36.53;;;;;;;;;;5031410;28;20033;-62
2022/03/05 16:49:48;;;;;;;131.50;64.82;;;;;;;;;;5031301;28;20551;-61
2022/03/05 16:52:14;;;;;;;48.65;26.05;;;;;;;;;;5031693;28;20041;-61
2022/03/05 16:54:40;;;;;;;51.75;26.02;;;;;;;;;;5031045;28;20040;-62
2022/03/05 16:57:06;;;;;;;50.17;25.92;;;;;;;;;;5030833;28;20108;-61
2022/03/05 16:59:32;;;;;;;43.67;22.58;;;;;;;;;;5031345;28;20033;-61
2022/03/05 17:01:58;;;;;;;41.88;22.13;;;;;;;;;;5031469;28;20083;-62
2022/03/05 17:04:27;;;;;;;42.85;22.13;;;;;;;;;;5030679;28;20531;-62
2022/03/05 17:06:54;;;;;;;44.25;24.02;;;;;;;;;;5030565;28;20049;-63
2022/03/05 17:09:20;;;;;;;53.17;27.35;;;;;;;;;;5031209;28;20433;-63
2022/03/05 17:11:47;;;;;;;52.85;27.13;;;;;;;;;;5030675;28;20029;-62
2022/03/05 17:14:13;;;;;;;48.20;24.98;;;;;;;;;;5030730;28;20855;-63
2022/03/05 17:16:39;;;;;;;63.10;31.70;;;;;;;;;;5031332;28;20022;-63
2022/03/05 17:19:05;;;;;;;52.38;26.40;;;;;;;;;;5030640;28;20540;-60
2022/03/05 17:21:31;;;;;;;52.70;24.48;;;;;;;;;;5031187;28;20026;-60
2022/03/05 17:23:57;;;;;;;50.92;26.65;;;;;;;;;;5030587;28;20021;-63
2022/03/05 17:26:24;;;;;;;70.30;33.58;;;;;;;;;;5029618;28;20041;-63
2022/03/05 17:28:50;;;;;;;71.15;32.60;;;;;;;;;;5029331;28;20104;-63
2022/03/05 17:31:16;;;;;;;55.85;26.98;;;;;;;;;;5030852;28;20033;-63
2022/03/05 17:33:44;;;;;;;52.72;26.50;;;;;;;;;;5029261;28;20036;-62
2022/03/05 17:36:10;;;;;;;67.55;31.08;;;;;;;;;;5029623;28;20044;-64
2022/03/05 17:38:37;;;;;;;43.58;22.50;;;;;;;;;;5029782;28;20093;-64
2022/03/05 17:41:03;;;;;;;53.58;26.00;;;;;;;;;;5029243;28;20025;-64
2022/03/05 17:43:29;;;;;;;60.40;28.83;;;;;;;;;;5029211;28;20048;-65
2022/03/05 17:45:55;;;;;;;52.70;25.98;;;;;;;;;;5029280;28;20079;-63
2022/03/05 17:48:21;;;;;;;66.25;31.40;;;;;;;;;;5026354;28;20541;-63
2022/03/05 17:50:48;;;;;;;55.38;29.75;;;;;;;;;;5029563;28;20026;-63
2022/03/05 17:53:14;;;;;;;69.40;33.65;;;;;;;;;;5029281;28;20358;-64
2022/03/05 17:55:41;;;;;;;66.35;32.63;;;;;;;;;;5029639;28;20064;-64
2022/03/05 17:58:07;;;;;;;71.65;34.92;;;;;;;;;;5030217;28;20025;-62
2022/03/05 18:00:38;;;;;;;71.82;34.00;;;;;;;;;;5030242;28;20029;-62
2022/03/05 18:03:05;;;;;;;68.97;33.80;;;;;;;;;;5029592;28;20100;-62
2022/03/05 18:05:31;;;;;;;69.00;35.42;;;;;;;;;;5029942;28;20083;-63
2022/03/05 18:07:57;;;;;;;71.78;34.22;;;;;;;;;;5030202;28;20026;-62
2022/03/05 18:10:23;;;;;;;56.13;27.88;;;;;;;;;;5029348;28;20029;-62
2022/03/05 18:12:50;;;;;;;64.25;29.88;;;;;;;;;;5027695;28;20025;-62
2022/03/05 18:15:16;;;;;;;75.82;33.97;;;;;;;;;;5027828;28;20037;-62
2022/03/05 18:17:42;;;;;;;81.40;36.53;;;;;;;;;;5027061;28;20428;-61
2022/03/05 18:20:09;;;;;;;86.63;38.55;;;;;;;;;;5025826;28;20029;-62
2022/03/05 18:22:35;;;;;;;72.22;32.47;;;;;;;;;;5029013;28;20021;-63
2022/03/05 18:25:02;;;;;;;76.28;33.45;;;;;;;;;;5028145;28;20060;-63
2022/03/05 18:27:28;;;;;;;79.72;37.22;;;;;;;;;;5017524;28;20037;-61
2022/03/05 18:29:54;;;;;;;76.00;36.60;;;;;;;;;;5028063;28;20096;-72
2022/03/05 18:32:20;;;;;;;61.47;29.60;;;;;;;;;;5028220;28;20578;-62
2022/03/05 18:34:47;;;;;;;84.47;38.63;;;;;;;;;;5029157;28;20469;-65
2022/03/05 18:37:14;;;;;;;91.43;39.92;;;;;;;;;;5028952;28;20021;-65
2022/03/05 18:39:40;;;;;;;68.88;32.03;;;;;;;;;;5029570;28;20385;-65
2022/03/05 18:42:06;;;;;;;78.55;36.50;;;;;;;;;;5029890;28;20030;-64
2022/03/05 18:44:33;;;;;;;81.47;38.58;;;;;;;;;;5026420;28;20033;-64
2022/03/05 18:46:59;;;;;;;87.20;39.20;;;;;;;;;;5029086;28;20036;-68
2022/03/05 18:49:26;;;;;;;78.43;37.40;;;;;;;;;;5029964;28;20442;-64
2022/03/05 18:51:53;;;;;;;69.78;34.08;;;;;;;;;;5028868;28;20092;-63
2022/03/05 18:54:21;;;;;;;71.47;34.80;;;;;;;;;;5029733;28;20049;-64
2022/03/05 18:56:47;;;;;;;85.72;38.90;;;;;;;;;;5029669;28;20057;-65
2022/03/05 18:59:13;;;;;;;71.10;34.50;;;;;;;;;;5028841;28;20041;-64
2022/03/05 19:01:39;;;;;;;54.22;27.13;;;;;;;;;;5029885;28;20037;-64
2022/03/05 19:04:05;;;;;;;57.13;27.67;;;;;;;;;;5029902;28;20076;-63
2022/03/05 19:06:33;;;;;;;54.28;27.10;;;;;;;;;;5029759;28;20119;-63
2022/03/05 19:08:59;;;;;;;52.00;24.98;;;;;;;;;;5029853;28;20496;-64
2022/03/05 19:11:25;;;;;;;58.13;27.83;;;;;;;;;;5029565;28;20473;-65
2022/03/05 19:13:53;;;;;;;65.57;30.98;;;;;;;;;;5029942;28;20022;-63
2022/03/05 19:16:19;;;;;;;54.92;27.58;;;;;;;;;;5029569;28;20072;-64
2022/03/05 19:18:45;;;;;;;63.17;31.65;;;;;;;;;;5029760;28;20033;-64
2022/03/05 19:21:12;;;;;;;63.53;29.52;;;;;;;;;;5029743;28;20033;-64
2022/03/05 19:23:38;;;;;;;56.55;26.35;;;;;;;;;;5029630;28;20027;-64
2022/03/05 19:26:04;;;;;;;63.90;31.08;;;;;;;;;;5029482;28;20044;-63
2022/03/05 19:28:31;;;;;;;62.88;30.08;;;;;;;;;;5029694;28;20045;-66
2022/03/05 19:30:57;;;;;;;67.20;33.10;;;;;;;;;;5029739;28;20072;-64
2022/03/05 19:33:23;;;;;;;56.35;28.25;;;;;;;;;;5029677;28;20033;-66
2022/03/05 19:35:49;;;;;;;64.32;30.67;;;;;;;;;;5029600;28;20021;-64
2022/03/05 19:38:15;;;;;;;66.88;31.25;;;;;;;;;;5029671;28;20079;-63
2022/03/05 19:40:43;;;;;;;67.13;31.13;;;;;;;;;;5029809;28;20037;-65
2022/03/05 19:43:10;;;;;;;62.10;30.50;;;;;;;;;;5029711;28;20026;-63
2022/03/05 19:45:37;;;;;;;62.90;30.35;;;;;;;;;;5029568;28;20049;-64
2022/03/05 19:48:04;;;;;;;59.55;28.63;;;;;;;;;;5029495;28;20039;-63
2022/03/05 19:50:30;;;;;;;61.63;28.88;;;;;;;;;;5029577;28;20025;-65
2022/03/05 19:52:56;;;;;;;57.75;27.60;;;;;;;;;;5030881;28;20025;-63
2022/03/05 19:55:23;;;;;;;55.42;27.60;;;;;;;;;;5032698;28;20057;-63
2022/03/05 19:57:49;;;;;;;58.28;28.00;;;;;;;;;;5032981;28;20117;-63
2022/03/05 20:00:16;;;;;;;55.88;25.85;;;;;;;;;;5033133;28;20045;-63
2022/03/05 20:02:43;;;;;;;54.25;27.10;;;;;;;;;;5032788;28;20477;-63
2022/03/05 20:05:10;;;;;;;49.10;26.05;;;;;;;;;;5032766;28;20041;-63
2022/03/05 20:07:36;;;;;;;56.83;29.63;;;;;;;;;;5032894;28;20036;-66
2022/03/05 20:10:04;;;;;;;60.42;30.05;;;;;;;;;;5032723;28;20099;-65
2022/03/05 20:12:30;;;;;;;61.60;30.58;;;;;;;;;;5032796;28;20026;-63
2022/03/05 20:14:56;;;;;;;67.85;33.35;;;;;;;;;;5032707;28;20025;-65
2022/03/05 20:17:22;;;;;;;63.50;32.95;;;;;;;;;;5032976;28;20076;-66
2022/03/05 20:19:48;;;;;;;65.32;32.85;;;;;;;;;;5032691;28;20669;-63
2022/03/05 20:22:15;;;;;;;72.40;34.85;;;;;;;;;;5032612;28;20053;-65
2022/03/05 20:24:41;;;;;;;70.78;35.13;;;;;;;;;;5032624;28;20107;-64
2022/03/05 20:27:07;;;;;;;76.65;35.85;;;;;;;;;;5032544;28;20026;-66
2022/03/05 20:29:35;;;;;;;70.45;35.35;;;;;;;;;;5032470;28;20464;-64
2022/03/05 20:32:02;;;;;;;78.47;38.33;;;;;;;;;;5032117;28;20018;-66
2022/03/05 20:34:28;;;;;;;80.00;40.03;;;;;;;;;;5031600;28;20218;-65
2022/03/05 20:36:54;;;;;;;84.38;42.67;;;;;;;;;;5032467;28;20026;-64
2022/03/05 20:39:20;;;;;;;82.63;40.05;;;;;;;;;;5032243;28;20079;-64
2022/03/05 20:41:46;;;;;;;76.60;38.00;;;;;;;;;;5032411;28;20100;-65
2022/03/05 20:44:12;;;;;;;79.70;37.42;;;;;;;;;;5032395;28;20037;-64
2022/03/05 20:46:39;;;;;;;78.15;37.05;;;;;;;;;;5031106;28;20034;-66
2022/03/05 20:49:05;;;;;;;77.03;37.53;;;;;;;;;;5032259;28;20465;-65
2022/03/05 20:51:31;;;;;;;78.90;38.15;;;;;;;;;;5032345;28;20377;-65
2022/03/05 20:53:58;;;;;;;83.75;38.78;;;;;;;;;;5030469;28;20038;-66
2022/03/05 20:56:24;;;;;;;88.75;43.08;;;;;;;;;;5032009;28;20120;-63
2022/03/05 20:58:51;;;;;;;84.15;39.17;;;;;;;;;;5031728;28;20470;-65
2022/03/05 21:01:17;;;;;;;78.72;37.88;;;;;;;;;;5031961;28;20025;-66
2022/03/05 21:03:43;;;;;;;81.85;38.00;;;;;;;;;;5031802;28;20481;-66
2022/03/05 21:06:09;;;;;;;80.40;36.78;;;;;;;;;;5031750;28;20042;-65